createdAt,value
2023-09-08T00:00:51.452Z,49.45
2023-09-08T00:01:55.822Z,49.59
2023-09-08T00:02:59.916Z,49.81
2023-09-08T00:04:05.413Z,49.43
2023-09-08T00:05:09.067Z,49.77
2023-09-08T00:06:13.770Z,49.71
2023-09-08T00:07:16.872Z,49.72
2023-09-08T00:08:20.972Z,49.78
2023-09-08T00:09:23.980Z,49.76
2023-09-08T00:10:28.105Z,49.95
2023-09-08T00:11:31.068Z,49.88
2023-09-08T00:12:33.983Z,50.00
2023-09-08T00:13:38.496Z,49.85
2023-09-08T00:14:41.624Z,49.79
2023-09-08T00:15:45.700Z,49.75
2023-09-08T00:16:50.064Z,49.79
2023-09-08T00:17:53.989Z,50.16
2023-09-08T00:18:57.315Z,49.78
2023-09-08T00:20:01.214Z,50.22
2023-09-08T00:21:04.049Z,50.51
2023-09-08T00:22:08.461Z,50.41
2023-09-08T00:23:11.525Z,50.45
2023-09-08T00:24:15.976Z,50.50
2023-09-08T00:25:18.971Z,50.80
2023-09-08T00:26:23.248Z,50.86
2023-09-08T00:27:26.335Z,50.92
2023-09-08T00:28:29.792Z,50.83
2023-09-08T00:29:34.197Z,50.99
2023-09-08T00:30:57.057Z,51.23
2023-09-08T00:32:03.197Z,51.06
2023-09-08T00:33:09.912Z,51.10
2023-09-08T00:34:14.003Z,51.21
2023-09-08T00:35:16.932Z,51.17
2023-09-08T00:36:21.293Z,51.26
2023-09-08T00:37:24.213Z,50.89
2023-09-08T00:38:28.832Z,50.95
2023-09-08T00:39:31.759Z,50.80
2023-09-08T00:40:35.616Z,50.94
2023-09-08T00:41:38.541Z,50.73
2023-09-08T00:42:42.377Z,50.91
2023-09-08T00:43:45.304Z,50.91
2023-09-08T00:44:49.131Z,50.96
2023-09-08T00:45:52.705Z,50.95
2023-09-08T00:46:57.663Z,51.04
2023-09-08T00:48:02.618Z,50.86
2023-09-08T00:49:10.330Z,50.81
2023-09-08T00:50:13.719Z,50.90
2023-09-08T00:51:17.667Z,50.81
2023-09-08T00:52:21.112Z,50.80
2023-09-08T00:53:25.936Z,50.81
2023-09-08T00:54:29.723Z,50.66
2023-09-08T00:55:36.413Z,50.86
2023-09-08T00:56:40.873Z,50.72
2023-09-08T00:57:45.268Z,50.82
2023-09-08T00:58:48.207Z,50.90
2023-09-08T00:59:52.542Z,51.04
2023-09-08T01:00:55.402Z,51.07
2023-09-08T01:01:59.576Z,51.08
2023-09-08T01:03:04.243Z,51.20
2023-09-08T01:04:08.305Z,51.23
2023-09-08T01:05:11.202Z,51.42
2023-09-08T01:06:15.518Z,51.27
2023-09-08T01:07:20.771Z,51.41
2023-09-08T01:08:24.914Z,51.37
2023-09-08T01:09:29.378Z,51.17
2023-09-08T01:10:33.826Z,51.36
2023-09-08T01:11:37.406Z,51.46
2023-09-08T01:12:41.576Z,51.39
2023-09-08T01:13:44.896Z,51.39
2023-09-08T01:14:49.728Z,51.49
2023-09-08T01:15:53.781Z,51.43
2023-09-08T01:16:56.802Z,51.38
2023-09-08T01:18:01.392Z,51.31
2023-09-08T01:19:08.338Z,51.08
2023-09-08T01:20:18.761Z,51.11
2023-09-08T01:21:43.907Z,51.29
2023-09-08T01:22:57.861Z,51.49
2023-09-08T01:24:23.173Z,51.63
2023-09-08T01:25:30.976Z,51.36
2023-09-08T01:26:38.363Z,51.51
2023-09-08T01:27:46.792Z,51.38
2023-09-08T01:28:53.310Z,51.47
2023-09-08T01:29:58.173Z,51.44
2023-09-08T01:31:02.776Z,51.66
2023-09-08T01:32:06.540Z,51.63
2023-09-08T01:33:10.731Z,51.99
2023-09-08T01:34:14.688Z,51.66
2023-09-08T01:35:18.661Z,51.96
2023-09-08T01:36:21.747Z,52.00
2023-09-08T01:37:26.101Z,51.81
2023-09-08T01:38:29.080Z,52.18
2023-09-08T01:39:33.330Z,52.43
2023-09-08T01:40:37.716Z,52.66
2023-09-08T01:41:41.788Z,52.66
2023-09-08T01:42:46.300Z,52.57
2023-09-08T01:43:50.894Z,52.60
2023-09-08T01:44:53.790Z,52.61
2023-09-08T01:45:57.584Z,52.50
2023-09-08T01:47:00.580Z,52.30
2023-09-08T01:48:04.102Z,52.34
2023-09-08T01:49:08.087Z,52.46
2023-09-08T01:50:11.155Z,52.76
2023-09-08T01:51:15.130Z,52.96
2023-09-08T01:52:18.090Z,52.71
2023-09-08T01:53:21.970Z,52.43
2023-09-08T01:54:25.116Z,52.48
2023-09-08T01:55:28.880Z,52.79
2023-09-08T01:56:33.176Z,52.53
2023-09-08T01:57:37.120Z,52.61
2023-09-08T01:58:39.972Z,52.53
2023-09-08T01:59:44.271Z,52.73
2023-09-08T02:00:50.771Z,52.60
2023-09-08T02:01:54.868Z,52.58
2023-09-08T02:02:58.556Z,52.59
2023-09-08T02:04:03.133Z,52.47
2023-09-08T02:05:07.970Z,52.34
2023-09-08T02:06:12.224Z,52.47
2023-09-08T02:07:15.679Z,52.49
2023-09-08T02:08:19.464Z,52.35
2023-09-08T02:09:23.809Z,52.36
2023-09-08T02:10:27.589Z,52.35
2023-09-08T02:11:30.422Z,52.20
2023-09-08T02:12:35.840Z,52.20
2023-09-08T02:13:38.802Z,51.87
2023-09-08T02:14:42.979Z,51.81
2023-09-08T02:15:46.128Z,51.90
2023-09-08T02:16:49.168Z,51.79
2023-09-08T02:17:54.847Z,51.83
2023-09-08T02:18:57.779Z,51.62
2023-09-08T02:20:02.083Z,51.71
2023-09-08T02:21:05.156Z,51.73
2023-09-08T02:22:09.296Z,51.74
2023-09-08T02:23:12.464Z,51.49
2023-09-08T02:24:17.223Z,51.68
2023-09-08T02:25:20.832Z,51.54
2023-09-08T02:26:25.042Z,51.55
2023-09-08T02:27:29.029Z,51.45
2023-09-08T02:28:34.523Z,51.59
2023-09-08T02:29:37.635Z,51.68
2023-09-08T02:30:41.593Z,51.61
2023-09-08T02:31:45.524Z,51.59
2023-09-08T02:32:49.473Z,51.85
2023-09-08T02:33:53.089Z,52.09
2023-09-08T02:34:57.183Z,52.38
2023-09-08T02:36:03.605Z,52.43
2023-09-08T02:37:07.437Z,52.38
2023-09-08T02:38:11.087Z,52.82
2023-09-08T02:39:15.163Z,52.61
2023-09-08T02:40:18.763Z,52.89
2023-09-08T02:41:23.005Z,52.72
2023-09-08T02:42:25.817Z,52.99
2023-09-08T02:43:30.144Z,53.15
2023-09-08T02:44:35.123Z,53.10
2023-09-08T02:45:39.112Z,53.09
2023-09-08T02:46:42.444Z,53.16
2023-09-08T02:47:46.539Z,53.11
2023-09-08T02:48:50.491Z,53.08
2023-09-08T02:49:54.308Z,52.90
2023-09-08T02:50:57.215Z,52.70
2023-09-08T02:52:00.990Z,52.94
2023-09-08T02:53:04.153Z,52.89
2023-09-08T02:54:08.772Z,53.00
2023-09-08T02:55:12.634Z,53.11
2023-09-08T02:56:16.469Z,53.23
2023-09-08T02:57:19.361Z,53.24
2023-09-08T02:58:22.444Z,52.98
2023-09-08T02:59:26.687Z,53.28
2023-09-08T03:00:31.632Z,52.95
2023-09-08T03:01:35.703Z,53.03
2023-09-08T03:02:38.743Z,52.79
2023-09-08T03:03:43.687Z,53.07
2023-09-08T03:04:46.987Z,53.11
2023-09-08T03:05:57.764Z,52.86
2023-09-08T03:07:00.833Z,53.03
2023-09-08T03:10:13.047Z,53.03
2023-09-08T03:12:19.841Z,53.16
2023-09-08T03:13:22.771Z,53.05
2023-09-08T03:14:26.558Z,53.42
2023-09-08T03:15:29.552Z,53.35
2023-09-08T03:16:34.872Z,53.16
2023-09-08T03:17:37.781Z,53.19
2023-09-08T03:18:41.628Z,53.26
2023-09-08T03:19:47.017Z,53.16
2023-09-08T03:20:51.688Z,53.19
2023-09-08T03:21:54.927Z,53.24
2023-09-08T03:22:58.732Z,53.17
2023-09-08T03:24:01.677Z,52.92
2023-09-08T03:25:07.434Z,52.96
2023-09-08T03:26:11.437Z,53.17
2023-09-08T03:27:16.627Z,53.01
2023-09-08T03:28:20.184Z,53.08
2023-09-08T03:29:24.912Z,52.87
2023-09-08T03:30:28.131Z,52.55
2023-09-08T03:31:34.851Z,52.50
2023-09-08T03:32:38.293Z,52.72
2023-09-08T03:33:43.670Z,52.54
2023-09-08T03:34:47.337Z,52.66
2023-09-08T03:35:51.304Z,52.44
2023-09-08T03:36:56.093Z,52.70
2023-09-08T03:37:59.633Z,52.75
2023-09-08T03:39:03.492Z,53.07
2023-09-08T03:40:08.139Z,52.50
2023-09-08T03:41:12.183Z,52.47
2023-09-08T03:42:15.095Z,52.47
2023-09-08T03:43:18.940Z,52.79
2023-09-08T03:44:21.846Z,52.40
2023-09-08T03:45:25.706Z,52.36
2023-09-08T03:46:28.649Z,52.58
2023-09-08T03:47:33.875Z,52.57
2023-09-08T03:48:36.911Z,52.59
2023-09-08T03:49:40.950Z,52.70
2023-09-08T03:50:46.394Z,52.57
2023-09-08T03:51:51.001Z,52.68
2023-09-08T03:52:54.417Z,52.57
2023-09-08T03:53:58.672Z,52.61
2023-09-08T03:55:01.727Z,52.71
2023-09-08T03:56:05.920Z,52.71
2023-09-08T03:57:09.000Z,52.68
2023-09-08T03:58:13.220Z,53.10
2023-09-08T03:59:16.084Z,52.92
2023-09-08T04:00:22.667Z,53.08
2023-09-08T04:01:26.581Z,52.87
2023-09-08T04:02:29.847Z,53.00
2023-09-08T04:03:35.486Z,52.87
2023-09-08T04:04:38.584Z,53.10
2023-09-08T04:05:42.408Z,53.31
2023-09-08T04:06:45.326Z,53.42
2023-09-08T04:07:49.181Z,53.41
2023-09-08T04:08:52.428Z,53.54
2023-09-08T04:09:55.290Z,53.64
2023-09-08T04:10:59.045Z,53.43
2023-09-08T04:12:03.258Z,53.53
2023-09-08T04:13:07.484Z,53.41
2023-09-08T04:14:11.729Z,53.41
2023-09-08T04:15:16.018Z,53.58
2023-09-08T04:16:21.452Z,53.32
2023-09-08T04:17:25.590Z,53.45
2023-09-08T04:18:28.607Z,54.03
2023-09-08T04:19:32.954Z,54.19
2023-09-08T04:20:36.832Z,54.39
2023-09-08T04:21:40.218Z,54.23
2023-09-08T04:22:44.057Z,54.48
2023-09-08T04:23:47.909Z,54.72
2023-09-08T04:24:52.524Z,54.66
2023-09-08T04:25:55.353Z,54.68
2023-09-08T04:26:59.185Z,54.73
2023-09-08T04:28:02.110Z,54.50
2023-09-08T04:29:06.112Z,54.64
2023-09-08T04:30:10.262Z,54.68
2023-09-08T04:31:14.278Z,54.68
2023-09-08T04:32:17.130Z,54.81
2023-09-08T04:33:21.118Z,54.76
2023-09-08T04:34:23.991Z,55.06
2023-09-08T04:36:02.352Z,54.95
2023-09-08T04:42:48.283Z,54.27
2023-09-08T04:44:27.474Z,54.66
2023-09-08T04:46:14.826Z,54.87
2023-09-08T04:47:17.924Z,54.74
2023-09-08T04:48:22.006Z,54.55
2023-09-08T04:49:25.077Z,54.53
2023-09-08T04:50:29.114Z,54.27
2023-09-08T04:51:33.512Z,54.21
2023-09-08T04:52:37.518Z,54.25
2023-09-08T04:53:40.593Z,53.95
2023-09-08T04:54:43.791Z,53.98
2023-09-08T04:55:49.042Z,53.86
2023-09-08T04:56:55.464Z,53.51
2023-09-08T04:58:03.769Z,53.67
2023-09-08T04:59:07.148Z,53.66
2023-09-08T05:00:13.121Z,53.50
2023-09-08T05:01:16.551Z,53.66
2023-09-08T05:02:21.035Z,53.54
2023-09-08T05:03:24.066Z,53.56
2023-09-08T05:04:28.403Z,53.52
2023-09-08T05:05:31.377Z,53.43
2023-09-08T05:06:36.700Z,53.26
2023-09-08T05:07:39.713Z,53.24
2023-09-08T05:08:45.520Z,53.17
2023-09-08T05:09:48.536Z,53.37
2023-09-08T05:10:52.421Z,53.08
2023-09-08T05:11:55.529Z,53.12
2023-09-08T05:12:59.691Z,53.24
2023-09-08T05:14:03.302Z,53.18
2023-09-08T05:15:12.049Z,53.02
2023-09-08T05:16:15.485Z,52.99
2023-09-08T05:17:19.590Z,53.08
2023-09-08T05:18:24.587Z,53.26
2023-09-08T05:19:29.179Z,53.28
2023-09-08T05:20:32.450Z,53.26
2023-09-08T05:21:38.368Z,53.00
2023-09-08T05:22:42.754Z,53.28
2023-09-08T05:23:45.777Z,53.13
2023-09-08T05:24:49.889Z,53.23
2023-09-08T05:25:53.557Z,53.10
2023-09-08T05:26:57.592Z,53.05
2023-09-08T05:28:01.656Z,53.15
2023-09-08T05:29:05.550Z,53.10
2023-09-08T05:30:09.587Z,52.99
2023-09-08T05:31:13.510Z,52.64
2023-09-08T05:32:16.614Z,52.48
2023-09-08T05:33:20.629Z,52.30
2023-09-08T05:34:23.598Z,51.96
2023-09-08T05:35:27.436Z,51.52
2023-09-08T05:36:30.803Z,51.11
2023-09-08T05:37:36.201Z,50.84
2023-09-08T05:38:39.185Z,50.37
2023-09-08T05:39:43.439Z,50.02
2023-09-08T05:40:46.363Z,50.04
2023-09-08T05:41:50.253Z,50.05
2023-09-08T05:42:53.250Z,49.82
2023-09-08T05:43:57.209Z,49.05
2023-09-08T05:45:00.268Z,48.58
2023-09-08T05:46:05.295Z,48.54
2023-09-08T05:47:09.082Z,48.70
2023-09-08T05:48:13.700Z,48.69
2023-09-08T05:49:16.637Z,48.44
2023-09-08T05:50:19.516Z,47.84
2023-09-08T05:51:23.777Z,47.57
2023-09-08T05:52:29.159Z,47.29
2023-09-08T05:53:34.545Z,47.33
2023-09-08T05:54:37.380Z,47.21
2023-09-08T05:55:41.177Z,46.55
2023-09-08T05:56:43.993Z,46.18
2023-09-08T05:57:47.843Z,46.61
2023-09-08T05:58:50.709Z,46.33
2023-09-08T05:59:54.685Z,45.82
2023-09-08T06:00:57.672Z,45.91
2023-09-08T06:02:01.657Z,45.80
2023-09-08T06:03:05.352Z,45.88
2023-09-08T06:04:08.512Z,44.85
2023-09-08T06:05:12.571Z,44.74
2023-09-08T06:06:15.678Z,45.10
2023-09-08T06:07:19.743Z,44.89
2023-09-08T06:08:23.372Z,44.97
2023-09-08T06:09:28.679Z,44.96
2023-09-08T06:10:32.005Z,44.72
2023-09-08T06:11:35.877Z,44.60
2023-09-08T06:12:38.754Z,44.35
2023-09-08T06:13:43.492Z,44.27
2023-09-08T06:14:46.291Z,43.83
2023-09-08T06:15:50.087Z,43.52
2023-09-08T06:16:53.042Z,44.02
2023-09-08T06:17:57.006Z,43.67
2023-09-08T06:19:00.756Z,43.05
2023-09-08T06:20:04.781Z,43.14
2023-09-08T06:21:08.233Z,43.04
2023-09-08T06:22:12.307Z,42.80
2023-09-08T06:23:15.524Z,42.66
2023-09-08T06:24:19.352Z,42.45
2023-09-08T06:25:23.719Z,42.50
2023-09-08T06:26:27.585Z,42.52
2023-09-08T06:27:31.301Z,42.41
2023-09-08T06:28:36.846Z,42.24
2023-09-08T06:29:41.146Z,42.02
2023-09-08T06:30:45.201Z,42.03
2023-09-08T06:31:48.036Z,41.80
2023-09-08T06:32:52.062Z,41.67
2023-09-08T06:33:55.147Z,41.54
2023-09-08T06:34:59.063Z,41.50
2023-09-08T06:36:01.968Z,41.17
2023-09-08T06:37:06.033Z,41.15
2023-09-08T06:38:08.896Z,41.04
2023-09-08T06:39:14.023Z,40.77
2023-09-08T06:40:17.761Z,40.66
2023-09-08T06:41:24.180Z,40.83
2023-09-08T06:42:27.062Z,40.75
2023-09-08T06:43:31.229Z,40.60
2023-09-08T06:44:34.267Z,40.39
2023-09-08T06:45:41.142Z,40.40
2023-09-08T06:46:44.309Z,40.41
2023-09-08T06:47:48.399Z,40.52
2023-09-08T06:48:51.567Z,40.15
2023-09-08T06:49:55.868Z,39.46
2023-09-08T06:51:00.328Z,40.05
2023-09-08T06:52:05.278Z,40.32
2023-09-08T06:53:08.914Z,39.91
2023-09-08T06:54:13.058Z,39.75
2023-09-08T06:55:17.524Z,39.75
2023-09-08T06:56:22.731Z,40.17
2023-09-08T06:57:25.679Z,39.38
2023-09-08T06:58:32.054Z,39.41
2023-09-08T06:59:39.249Z,39.44
2023-09-08T07:00:43.220Z,39.37
2023-09-08T07:01:46.589Z,39.20
2023-09-08T07:02:51.887Z,39.16
2023-09-08T07:03:55.244Z,39.17
2023-09-08T07:05:00.239Z,39.09
2023-09-08T07:06:04.155Z,38.90
2023-09-08T07:07:09.123Z,39.15
2023-09-08T07:08:12.210Z,38.74
2023-09-08T07:09:16.631Z,38.93
2023-09-08T07:10:19.876Z,38.89
2023-09-08T07:11:25.107Z,38.81
2023-09-08T07:12:28.368Z,38.76
2023-09-08T07:13:34.978Z,38.61
2023-09-08T07:14:40.023Z,38.35
2023-09-08T07:15:47.880Z,38.34
2023-09-08T07:16:51.879Z,38.45
2023-09-08T07:17:56.106Z,38.55
2023-09-08T07:19:02.074Z,38.61
2023-09-08T07:20:07.344Z,38.40
2023-09-08T07:21:10.950Z,38.07
2023-09-08T07:22:15.136Z,38.01
2023-09-08T07:23:18.634Z,38.08
2023-09-08T07:24:22.671Z,38.11
2023-09-08T07:25:25.585Z,38.37
2023-09-08T07:26:31.032Z,38.22
2023-09-08T07:27:33.997Z,38.13
2023-09-08T07:28:38.170Z,37.86
2023-09-08T07:29:41.418Z,37.79
2023-09-08T07:30:45.747Z,37.87
2023-09-08T07:31:49.410Z,37.98
2023-09-08T07:32:54.382Z,37.99
2023-09-08T07:33:57.567Z,38.04
2023-09-08T07:35:01.750Z,38.01
2023-09-08T07:36:06.142Z,37.96
2023-09-08T07:37:10.635Z,37.80
2023-09-08T07:38:13.662Z,37.93
2023-09-08T07:39:18.284Z,37.52
2023-09-08T07:40:21.373Z,37.78
2023-09-08T07:41:25.139Z,37.84
2023-09-08T07:42:30.352Z,37.97
2023-09-08T07:43:34.418Z,37.92
2023-09-08T07:44:37.347Z,38.02
2023-09-08T07:45:41.624Z,37.86
2023-09-08T07:46:47.162Z,37.81
2023-09-08T07:48:07.225Z,37.75
2023-09-08T07:49:14.176Z,38.06
2023-09-08T07:50:20.378Z,37.96
2023-09-08T07:51:24.452Z,38.28
2023-09-08T07:52:32.099Z,38.03
2023-09-08T07:53:38.128Z,37.91
2023-09-08T07:54:43.409Z,37.84
2023-09-08T07:55:53.374Z,37.91
2023-09-08T07:56:57.418Z,37.56
2023-09-08T07:58:07.569Z,37.98
2023-09-08T07:59:10.607Z,37.60
2023-09-08T08:00:16.406Z,38.04
2023-09-08T08:01:19.554Z,37.80
2023-09-08T08:02:23.662Z,37.72
2023-09-08T08:03:26.717Z,37.69
2023-09-08T08:04:30.616Z,37.67
2023-09-08T08:05:33.579Z,37.60
2023-09-08T08:06:37.531Z,37.49
2023-09-08T08:07:41.544Z,37.66
2023-09-08T08:08:45.448Z,37.61
2023-09-08T08:09:48.592Z,37.80
2023-09-08T08:10:52.461Z,37.62
2023-09-08T08:11:55.690Z,37.60
2023-09-08T08:12:59.840Z,37.68
2023-09-08T08:14:05.143Z,37.91
2023-09-08T08:15:11.393Z,37.76
2023-09-08T08:16:14.961Z,37.75
2023-09-08T08:17:20.875Z,37.93
2023-09-08T08:18:24.071Z,37.68
2023-09-08T08:19:28.838Z,37.72
2023-09-08T08:20:36.078Z,37.36
2023-09-08T08:21:43.293Z,37.78
2023-09-08T08:22:46.865Z,37.72
2023-09-08T08:23:50.947Z,37.74
2023-09-08T08:24:53.946Z,37.72
2023-09-08T08:25:57.880Z,37.33
2023-09-08T08:27:02.883Z,37.52
2023-09-08T08:28:07.231Z,37.36
2023-09-08T08:29:12.059Z,37.37
2023-09-08T08:30:15.985Z,37.00
2023-09-08T08:31:18.855Z,37.44
2023-09-08T08:32:23.232Z,37.00
2023-09-08T08:33:27.239Z,37.05
2023-09-08T08:34:31.869Z,36.67
2023-09-08T08:35:35.684Z,36.88
2023-09-08T08:36:40.230Z,36.87
2023-09-08T08:37:44.181Z,37.09
2023-09-08T08:38:48.151Z,37.07
2023-09-08T08:39:51.198Z,37.19
2023-09-08T08:40:55.645Z,37.20
2023-09-08T08:41:59.212Z,36.86
2023-09-08T08:43:04.980Z,37.00
2023-09-08T08:44:09.016Z,36.96
2023-09-08T08:45:15.361Z,36.83
2023-09-08T08:46:19.854Z,36.98
2023-09-08T08:47:23.989Z,37.00
2023-09-08T08:48:28.789Z,36.80
2023-09-08T08:49:34.228Z,37.31
2023-09-08T08:50:38.948Z,36.90
2023-09-08T08:51:46.454Z,36.82
2023-09-08T08:52:49.464Z,37.26
2023-09-08T08:53:54.394Z,37.07
2023-09-08T08:54:58.393Z,36.66
2023-09-08T08:56:03.372Z,37.13
2023-09-08T08:57:07.356Z,36.51
2023-09-08T08:58:12.057Z,36.39
2023-09-08T08:59:16.059Z,36.44
2023-09-08T09:00:22.362Z,36.52
2023-09-08T09:01:27.328Z,36.00
2023-09-08T09:02:32.041Z,37.07
2023-09-08T09:03:38.964Z,36.30
2023-09-08T09:04:43.258Z,36.89
2023-09-08T09:05:48.744Z,36.53
2023-09-08T09:06:53.265Z,36.61
2023-09-08T09:07:59.220Z,36.45
2023-09-08T09:09:04.625Z,36.02
2023-09-08T09:10:08.883Z,35.58
2023-09-08T09:11:13.900Z,35.84
2023-09-08T09:12:16.940Z,35.72
2023-09-08T09:13:21.335Z,35.47
2023-09-08T09:14:25.307Z,35.75
2023-09-08T09:15:33.719Z,35.52
2023-09-08T09:16:41.574Z,35.98
2023-09-08T09:17:46.153Z,35.34
2023-09-08T09:18:56.636Z,35.41
2023-09-08T09:20:15.790Z,35.19
2023-09-08T09:21:18.658Z,35.32
2023-09-08T09:22:23.237Z,35.35
2023-09-08T09:23:30.467Z,35.55
2023-09-08T09:24:38.408Z,35.13
2023-09-08T09:25:42.012Z,35.31
2023-09-08T09:26:46.089Z,34.64
2023-09-08T09:27:52.361Z,34.76
2023-09-08T09:28:56.377Z,35.03
2023-09-08T09:29:59.882Z,34.88
2023-09-08T09:31:05.259Z,35.45
2023-09-08T09:32:09.262Z,34.79
2023-09-08T09:33:12.424Z,35.23
2023-09-08T09:34:16.432Z,35.36
2023-09-08T09:35:19.901Z,35.14
2023-09-08T09:36:24.605Z,35.46
2023-09-08T09:37:27.823Z,35.36
2023-09-08T09:38:32.000Z,35.80
2023-09-08T09:39:35.194Z,35.52
2023-09-08T09:40:40.197Z,35.33
2023-09-08T09:41:45.396Z,35.27
2023-09-08T09:42:51.804Z,35.54
2023-09-08T09:43:55.726Z,35.42
2023-09-08T09:44:58.921Z,35.28
2023-09-08T09:46:04.535Z,35.42
2023-09-08T09:47:08.239Z,34.47
2023-09-08T09:48:13.406Z,34.61
2023-09-08T09:49:18.903Z,34.54
2023-09-08T09:50:31.359Z,34.33
2023-09-08T09:51:41.046Z,34.93
2023-09-08T09:52:49.785Z,34.75
2023-09-08T09:53:53.335Z,34.88
2023-09-08T09:54:58.102Z,34.72
2023-09-08T09:56:01.618Z,34.42
2023-09-08T09:57:06.134Z,35.11
2023-09-08T09:58:11.906Z,34.78
2023-09-08T09:59:16.648Z,35.16
2023-09-08T10:00:20.735Z,34.85
2023-09-08T10:01:27.870Z,34.98
2023-09-08T10:02:31.945Z,35.13
2023-09-08T10:03:36.212Z,35.23
2023-09-08T10:04:41.586Z,34.71
2023-09-08T10:05:48.137Z,35.00
2023-09-08T10:06:52.853Z,34.72
2023-09-08T10:07:56.764Z,34.94
2023-09-08T10:09:00.543Z,35.08
2023-09-08T10:10:06.715Z,35.10
2023-09-08T10:11:10.286Z,35.71
2023-09-08T10:12:18.202Z,35.39
2023-09-08T10:13:28.314Z,35.49
2023-09-08T10:14:33.813Z,35.45
2023-09-08T10:15:39.238Z,35.69
2023-09-08T10:16:50.624Z,35.85
2023-09-08T10:17:56.509Z,35.34
2023-09-08T10:19:02.747Z,35.16
2023-09-08T10:20:12.302Z,35.63
2023-09-08T10:21:18.792Z,36.06
2023-09-08T10:22:27.287Z,35.34
2023-09-08T10:23:37.312Z,35.45
2023-09-08T10:24:44.201Z,35.27
2023-09-08T10:25:55.696Z,35.03
2023-09-08T10:27:10.224Z,35.39
2023-09-08T10:28:16.074Z,34.75
2023-09-08T10:29:20.467Z,34.92
2023-09-08T10:30:25.232Z,34.93
2023-09-08T10:31:29.917Z,35.09
2023-09-08T10:32:36.487Z,35.12
2023-09-08T10:33:40.556Z,34.74
2023-09-08T10:34:46.875Z,34.67
2023-09-08T10:35:50.035Z,34.96
2023-09-08T10:36:54.214Z,35.04
2023-09-08T10:38:23.334Z,35.11
2023-09-08T10:39:33.429Z,35.19
2023-09-08T10:40:36.652Z,35.09
2023-09-08T10:41:42.219Z,35.12
2023-09-08T10:42:45.601Z,35.15
2023-09-08T10:43:57.441Z,35.55
2023-09-08T10:45:05.742Z,35.71
2023-09-08T10:46:11.295Z,35.57
2023-09-08T10:47:14.400Z,35.17
2023-09-08T10:48:22.021Z,35.18
2023-09-08T10:49:25.075Z,35.79
2023-09-08T10:50:32.519Z,35.29
2023-09-08T10:51:35.971Z,35.73
2023-09-08T10:52:39.893Z,35.60
2023-09-08T10:53:42.964Z,35.56
2023-09-08T10:54:48.876Z,35.28
2023-09-08T10:57:02.209Z,35.58
2023-09-08T10:58:06.816Z,35.16
2023-09-08T10:59:12.781Z,35.67
2023-09-08T11:00:21.321Z,35.45
2023-09-08T11:01:28.667Z,35.32
2023-09-08T11:02:34.696Z,35.52
2023-09-08T11:03:50.890Z,35.31
2023-09-08T11:04:55.205Z,35.43
2023-09-08T11:06:00.271Z,35.57
2023-09-08T11:07:03.790Z,35.32
2023-09-08T11:08:08.208Z,35.26
2023-09-08T11:09:11.411Z,35.47
2023-09-08T11:10:15.552Z,35.40
2023-09-08T11:11:18.941Z,35.81
2023-09-08T11:12:24.684Z,35.24
2023-09-08T11:13:29.232Z,35.31
2023-09-08T11:14:33.115Z,35.23
2023-09-08T11:15:36.209Z,35.32
2023-09-08T11:16:40.086Z,35.24
2023-09-08T11:17:43.811Z,35.51
2023-09-08T11:18:49.214Z,35.09
2023-09-08T11:19:53.652Z,35.67
2023-09-08T11:20:58.741Z,35.49
2023-09-08T11:22:01.993Z,35.00
2023-09-08T11:23:07.287Z,35.35
2023-09-08T11:24:11.721Z,35.02
2023-09-08T11:25:16.234Z,35.10
2023-09-08T11:26:25.852Z,34.74
2023-09-08T11:27:31.499Z,35.19
2023-09-08T11:28:35.353Z,34.55
2023-09-08T11:29:41.600Z,34.95
2023-09-08T11:30:45.655Z,34.95
2023-09-08T11:31:53.560Z,35.25
2023-09-08T11:33:00.044Z,35.21
2023-09-08T11:34:06.948Z,35.26
2023-09-08T11:35:13.796Z,34.88
2023-09-08T11:36:17.957Z,34.88
2023-09-08T11:37:22.941Z,34.51
2023-09-08T11:38:27.495Z,34.85
2023-09-08T11:39:31.409Z,34.96
2023-09-08T11:40:35.938Z,34.97
2023-09-08T11:41:40.028Z,34.99
2023-09-08T11:42:46.049Z,34.84
2023-09-08T11:43:50.436Z,35.05
2023-09-08T11:44:54.892Z,35.54
2023-09-08T11:46:00.632Z,35.35
2023-09-08T11:47:04.839Z,35.54
2023-09-08T11:48:09.241Z,34.77
2023-09-08T11:49:14.070Z,34.83
2023-09-08T11:50:20.777Z,35.02
2023-09-08T11:51:25.152Z,35.26
2023-09-08T11:52:29.110Z,35.29
2023-09-08T11:53:34.782Z,34.81
2023-09-08T11:54:51.868Z,35.30
2023-09-08T11:55:59.102Z,35.11
2023-09-08T11:57:05.004Z,35.05
2023-09-08T11:58:08.304Z,35.35
2023-09-08T11:59:12.463Z,34.61
2023-09-08T12:00:19.141Z,34.70
2023-09-08T12:01:23.420Z,35.16
2023-09-08T12:02:27.004Z,34.44
2023-09-08T12:03:31.496Z,35.06
2023-09-08T12:04:38.098Z,34.80
2023-09-08T12:05:43.794Z,34.67
2023-09-08T12:06:47.959Z,34.46
2023-09-08T12:07:53.186Z,35.12
2023-09-08T12:08:57.600Z,34.75
2023-09-08T12:10:10.172Z,35.00
2023-09-08T12:11:14.792Z,34.56
2023-09-08T12:12:19.467Z,34.69
2023-09-08T12:13:25.414Z,35.28
2023-09-08T12:14:31.673Z,34.46
2023-09-08T12:15:36.294Z,35.03
2023-09-08T12:16:41.187Z,34.38
2023-09-08T12:17:51.801Z,34.56
2023-09-08T12:18:56.359Z,34.40
2023-09-08T12:20:01.281Z,34.88
2023-09-08T12:21:07.979Z,34.51
2023-09-08T12:22:12.989Z,34.35
2023-09-08T12:23:19.704Z,34.36
2023-09-08T12:24:50.746Z,34.63
2023-09-08T12:25:55.135Z,34.35
2023-09-08T12:26:58.133Z,34.67
2023-09-08T12:28:02.825Z,34.53
2023-09-08T12:29:13.418Z,34.43
2023-09-08T12:30:21.576Z,34.62
2023-09-08T12:31:25.114Z,34.50
2023-09-08T12:32:32.591Z,34.43
2023-09-08T12:33:36.397Z,34.69
2023-09-08T12:34:40.474Z,34.85
2023-09-08T12:35:46.786Z,34.51
2023-09-08T12:36:51.171Z,34.83
2023-09-08T12:38:15.952Z,34.80
2023-09-08T12:39:36.065Z,34.93
2023-09-08T12:40:40.967Z,34.69
2023-09-08T12:41:44.823Z,35.35
2023-09-08T12:42:49.720Z,35.13
2023-09-08T12:44:03.075Z,35.09
2023-09-08T12:45:07.654Z,34.97
2023-09-08T12:46:12.288Z,35.14
2023-09-08T12:47:15.289Z,35.38
2023-09-08T12:48:19.340Z,34.67
2023-09-08T12:49:22.504Z,34.56
2023-09-08T12:50:26.836Z,34.77
2023-09-08T12:51:31.216Z,34.50
2023-09-08T12:52:35.159Z,34.42
2023-09-08T12:53:38.213Z,34.63
2023-09-08T12:54:42.383Z,34.20
2023-09-08T12:55:45.572Z,34.58
2023-09-08T12:56:51.547Z,34.75
2023-09-08T12:57:55.794Z,34.14
2023-09-08T12:58:59.912Z,34.28
2023-09-08T13:00:03.861Z,34.65
2023-09-08T13:01:08.454Z,34.28
2023-09-08T13:02:13.797Z,34.54
2023-09-08T13:03:17.822Z,34.89
2023-09-08T13:04:21.170Z,34.48
2023-09-08T13:05:25.226Z,34.41
2023-09-08T13:06:28.420Z,34.28
2023-09-08T13:07:33.745Z,34.76
2023-09-08T13:08:36.868Z,34.93
2023-09-08T13:09:41.662Z,34.66
2023-09-08T13:10:45.057Z,35.19
2023-09-08T13:11:49.093Z,34.86
2023-09-08T13:12:52.472Z,34.75
2023-09-08T13:13:56.693Z,34.83
2023-09-08T13:15:00.467Z,35.13
2023-09-08T13:16:04.764Z,34.64
2023-09-08T13:17:08.342Z,34.51
2023-09-08T13:18:12.288Z,34.47
2023-09-08T13:19:15.328Z,34.58
2023-09-08T13:20:19.396Z,34.81
2023-09-08T13:21:22.482Z,35.11
2023-09-08T13:22:25.916Z,34.46
2023-09-08T13:23:31.153Z,35.02
2023-09-08T13:24:35.013Z,34.92
2023-09-08T13:25:39.215Z,34.53
2023-09-08T13:26:42.325Z,34.50
2023-09-08T13:27:49.052Z,34.41
2023-09-08T13:28:53.672Z,34.39
2023-09-08T13:30:11.059Z,34.68
2023-09-08T13:31:14.138Z,34.67
2023-09-08T13:32:19.673Z,34.82
2023-09-08T13:33:22.927Z,34.13
2023-09-08T13:34:27.375Z,34.73
2023-09-08T13:35:30.601Z,34.61
2023-09-08T13:36:35.024Z,34.25
2023-09-08T13:37:39.513Z,33.97
2023-09-08T13:38:45.794Z,34.40
2023-09-08T13:39:49.124Z,34.21
2023-09-08T13:40:54.122Z,34.80
2023-09-08T13:42:01.385Z,34.60
2023-09-08T13:43:18.447Z,34.47
2023-09-08T13:44:26.286Z,35.09
2023-09-08T13:45:37.401Z,34.64
2023-09-08T13:46:40.842Z,34.63
2023-09-08T13:47:45.680Z,34.28
2023-09-08T13:48:49.669Z,34.46
2023-09-08T13:49:55.446Z,34.46
2023-09-08T13:51:06.404Z,34.38
2023-09-08T13:52:12.604Z,34.31
2023-09-08T13:53:16.024Z,34.26
2023-09-08T13:54:24.522Z,34.39
2023-09-08T13:56:35.664Z,34.91
2023-09-08T13:57:41.590Z,34.41
2023-09-08T13:58:50.044Z,34.29
2023-09-08T14:01:01.632Z,34.96
2023-09-08T14:02:39.025Z,34.45
2023-09-08T14:03:43.235Z,35.21
2023-09-08T14:04:59.709Z,34.15
2023-09-08T14:08:28.368Z,34.55
2023-09-08T14:09:53.799Z,34.23
2023-09-08T14:13:13.049Z,34.07
2023-09-08T14:14:16.373Z,34.75
2023-09-08T14:15:22.197Z,34.26